createdAt,value
2023-01-18T00:02:55.377Z,97468.97
2023-01-18T00:06:16.541Z,97459.47
2023-01-18T00:12:39.588Z,97465.09
2023-01-18T00:15:44.552Z,97460.63
2023-01-18T00:18:54.400Z,97455.34
2023-01-18T00:22:22.294Z,97460.69
2023-01-18T00:25:29.867Z,97454.34
2023-01-18T00:28:36.915Z,97456.06
2023-01-18T00:31:40.339Z,97449.75
2023-01-18T00:34:43.057Z,97444.31
2023-01-18T00:37:46.049Z,97447.84
2023-01-18T00:40:53.415Z,97442.59
2023-01-18T00:43:55.361Z,97452.41
2023-01-18T00:47:00.308Z,97443.66
2023-01-18T00:50:04.691Z,97450.00
2023-01-18T00:53:07.342Z,97445.69
2023-01-18T00:56:13.593Z,97456.56
2023-01-18T00:59:17.400Z,97452.19
2023-01-18T01:02:20.223Z,97458.47
2023-01-18T01:05:43.454Z,97457.69
2023-01-18T01:08:50.132Z,97450.81
2023-01-18T01:12:13.174Z,97456.31
2023-01-18T01:15:36.333Z,97467.06
2023-01-18T01:18:56.366Z,97477.94
2023-01-18T01:22:22.516Z,97477.94
2023-01-18T01:25:42.656Z,97481.47
2023-01-18T01:28:51.336Z,97476.88
2023-01-18T01:31:54.043Z,97475.00
2023-01-18T01:34:56.767Z,97475.00
2023-01-18T01:37:59.468Z,97487.41
2023-01-18T01:41:06.635Z,97494.63
2023-01-18T01:44:52.336Z,97493.69
2023-01-18T01:47:57.299Z,97499.81
2023-01-18T01:51:08.353Z,97500.75
2023-01-18T01:54:17.266Z,97503.25
2023-01-18T01:57:23.865Z,97505.81
2023-01-18T02:00:28.187Z,97510.22
2023-01-18T02:03:34.093Z,97509.28
2023-01-18T02:06:40.175Z,97515.41
2023-01-18T02:09:42.934Z,97523.22
2023-01-18T02:12:48.010Z,97525.81
2023-01-18T02:16:00.133Z,97534.53
2023-01-18T02:19:18.330Z,97545.13
2023-01-18T02:22:49.079Z,97544.06
2023-01-18T02:26:18.416Z,97545.13
2023-01-18T02:29:36.701Z,97548.56
2023-01-18T02:32:50.453Z,97553.81
2023-01-18T02:35:56.179Z,97561.66
2023-01-18T02:39:06.931Z,97565.13
2023-01-18T02:42:36.691Z,97571.13
2023-01-18T02:46:02.359Z,97565.72
2023-01-18T02:49:10.783Z,97576.31
2023-01-18T02:52:39.783Z,97578.13
2023-01-18T02:55:48.085Z,97585.00
2023-01-18T02:59:08.719Z,97583.28
2023-01-18T03:02:17.247Z,97580.44
2023-01-18T03:05:25.501Z,97582.97
2023-01-18T03:08:36.447Z,97590.97
2023-01-18T03:11:47.111Z,97585.56
2023-01-18T03:15:01.993Z,97588.03
2023-01-18T03:18:11.710Z,97591.56
2023-01-18T03:21:14.572Z,97591.50
2023-01-18T03:24:19.573Z,97597.69
2023-01-18T03:27:40.238Z,97588.81
2023-01-18T03:31:10.238Z,97602.19
2023-01-18T03:34:22.533Z,97600.63
2023-01-18T03:37:30.384Z,97603.03
2023-01-18T03:40:33.068Z,97610.03
2023-01-18T03:43:37.764Z,97598.91
2023-01-18T03:46:43.739Z,97599.66
2023-01-18T03:49:54.135Z,97608.63
2023-01-18T03:53:07.078Z,97623.09
2023-01-18T03:56:16.743Z,97626.25
2023-01-18T03:59:19.413Z,97629.81
2023-01-18T04:02:24.339Z,97628.00
2023-01-18T04:05:28.473Z,97626.97
2023-01-18T04:08:32.739Z,97633.16
2023-01-18T04:11:38.450Z,97634.81
2023-01-18T04:14:43.221Z,97638.25
2023-01-18T04:17:49.799Z,97639.03
2023-01-18T04:20:56.844Z,97646.13
2023-01-18T04:24:02.248Z,97646.13
2023-01-18T04:27:08.185Z,97654.22
2023-01-18T04:30:13.392Z,97656.00
2023-01-18T04:33:16.015Z,97646.75
2023-01-18T04:36:22.836Z,97644.97
2023-01-18T04:39:25.607Z,97666.06
2023-01-18T04:42:31.673Z,97663.56
2023-01-18T04:45:34.563Z,97659.31
2023-01-18T04:48:37.184Z,97660.38
2023-01-18T04:51:44.147Z,97662.94
2023-01-18T04:54:46.819Z,97671.22
2023-01-18T04:57:56.595Z,97668.63
2023-01-18T05:01:12.362Z,97678.44
2023-01-18T05:04:15.051Z,97676.88
2023-01-18T05:07:19.036Z,97679.63
2023-01-18T05:10:21.670Z,97681.44
2023-01-18T05:13:24.666Z,97686.69
2023-01-18T05:16:33.290Z,97690.38
2023-01-18T05:19:35.997Z,97699.97
2023-01-18T05:22:47.719Z,97704.44
2023-01-18T05:25:53.767Z,97690.63
2023-01-18T05:28:57.834Z,97698.78
2023-01-18T05:32:00.574Z,97715.28
2023-01-18T05:35:11.467Z,97732.94
2023-01-18T05:38:15.467Z,97727.53
2023-01-18T05:41:43.532Z,97739.44
2023-01-18T05:44:46.380Z,97748.91
2023-01-18T05:47:49.185Z,97747.94
2023-01-18T05:50:58.253Z,97754.22
2023-01-18T05:54:02.360Z,97761.53
2023-01-18T05:57:04.992Z,97765.66
2023-01-18T06:00:11.299Z,97770.94
2023-01-18T06:03:13.948Z,97770.78
2023-01-18T06:06:16.687Z,97783.13
2023-01-18T06:09:20.666Z,97785.56
2023-01-18T06:12:23.687Z,97797.03
2023-01-18T06:15:29.375Z,97809.50
2023-01-18T06:18:33.843Z,97809.44
2023-01-18T06:21:36.493Z,97820.81
2023-01-18T06:24:40.515Z,97823.88
2023-01-18T06:27:43.380Z,97825.69
2023-01-18T06:30:48.087Z,97833.06
2023-01-18T06:33:51.229Z,97830.47
2023-01-18T06:36:54.030Z,97834.81
2023-01-18T06:39:58.207Z,97842.16
2023-01-18T06:43:01.247Z,97851.91
2023-01-18T06:46:07.570Z,97854.56
2023-01-18T06:49:11.186Z,97858.03
2023-01-18T06:52:13.921Z,97857.88
2023-01-18T06:55:19.700Z,97860.47
2023-01-18T06:58:22.387Z,97864.78
2023-01-18T07:01:25.341Z,97872.94
2023-01-18T07:04:28.484Z,97883.63
2023-01-18T07:07:31.203Z,97884.41
2023-01-18T07:10:35.208Z,97893.22
2023-01-18T07:13:40.150Z,97895.09
2023-01-18T07:16:45.626Z,97905.56
2023-01-18T07:19:48.342Z,97913.66
2023-01-18T07:22:52.681Z,97913.66
2023-01-18T07:26:01.569Z,97920.72
2023-01-18T07:29:06.520Z,97924.25
2023-01-18T07:32:09.247Z,97919.63
2023-01-18T07:35:12.034Z,97916.00
2023-01-18T07:38:15.507Z,97931.03
2023-01-18T07:41:19.575Z,97932.03
2023-01-18T07:44:22.275Z,97932.66
2023-01-18T07:47:24.924Z,97946.97
2023-01-18T07:50:30.380Z,97956.13
2023-01-18T07:53:34.708Z,97955.63
2023-01-18T07:56:41.318Z,97961.22
2023-01-18T07:59:46.401Z,97964.31
2023-01-18T08:02:51.389Z,97974.69
2023-01-18T08:05:54.014Z,97977.44
2023-01-18T08:08:59.905Z,97981.31
2023-01-18T08:12:04.247Z,97989.69
2023-01-18T08:15:08.011Z,97980.47
2023-01-18T08:18:10.615Z,97997.38
2023-01-18T08:21:16.156Z,97984.16
2023-01-18T08:24:18.769Z,98002.94
2023-01-18T08:27:27.146Z,98006.50
2023-01-18T08:30:32.311Z,98015.63
2023-01-18T08:33:40.954Z,98011.69
2023-01-18T08:36:43.634Z,98018.19
2023-01-18T08:39:46.385Z,98030.41
2023-01-18T08:42:51.126Z,98036.38
2023-01-18T08:45:53.914Z,98038.19
2023-01-18T08:48:59.203Z,98034.94
2023-01-18T08:52:01.836Z,98053.59
2023-01-18T08:55:05.394Z,98049.13
2023-01-18T08:58:12.015Z,98061.94
2023-01-18T09:01:17.681Z,98061.06
2023-01-18T09:04:24.824Z,98063.91
2023-01-18T09:07:27.755Z,98078.41
2023-01-18T09:10:32.725Z,98083.75
2023-01-18T09:13:47.823Z,98091.47
2023-01-18T09:17:01.687Z,98091.94
2023-01-18T09:20:09.675Z,98098.84
2023-01-18T09:23:14.235Z,98104.34
2023-01-18T09:26:20.647Z,98106.41
2023-01-18T09:29:29.167Z,98122.34
2023-01-18T09:32:34.872Z,98123.69
2023-01-18T09:35:45.298Z,98130.91
2023-01-18T09:38:47.986Z,98135.53
2023-01-18T09:41:55.413Z,98137.28
2023-01-18T09:45:03.466Z,98141.75
2023-01-18T09:48:11.288Z,98145.16
2023-01-18T09:51:20.748Z,98152.56
2023-01-18T09:54:38.130Z,98158.00
2023-01-18T09:57:55.279Z,98159.63
2023-01-18T10:01:13.083Z,98173.50
2023-01-18T10:04:21.138Z,98178.25
2023-01-18T10:07:29.601Z,98179.31
2023-01-18T10:10:37.284Z,98182.91
2023-01-18T10:13:48.719Z,98181.19
2023-01-18T10:16:57.537Z,98196.38
2023-01-18T10:20:01.822Z,98194.25
2023-01-18T10:23:17.027Z,98205.88
2023-01-18T10:26:27.123Z,98194.09
2023-01-18T10:29:45.323Z,98200.09
2023-01-18T10:32:54.793Z,98200.56
2023-01-18T10:36:02.071Z,98187.66
2023-01-18T10:39:13.834Z,98185.75
2023-01-18T10:42:25.774Z,98215.94
2023-01-18T10:45:32.094Z,98210.91
2023-01-18T10:48:36.378Z,98213.84
2023-01-18T10:51:48.245Z,98220.97
2023-01-18T10:54:55.740Z,98222.41
2023-01-18T10:57:59.259Z,98228.72
2023-01-18T11:01:06.646Z,98222.81
2023-01-18T11:04:21.920Z,98232.41
2023-01-18T11:07:31.217Z,98234.47
2023-01-18T11:10:37.972Z,98239.38
2023-01-18T11:13:43.901Z,98248.16
2023-01-18T11:16:58.682Z,98251.56
2023-01-18T11:20:08.722Z,98245.47
2023-01-18T11:23:22.500Z,98220.59
2023-01-18T11:26:29.556Z,98254.47
2023-01-18T11:29:35.135Z,98248.88
2023-01-18T11:32:40.816Z,98260.00
2023-01-18T11:35:45.565Z,98266.03
2023-01-18T11:38:48.897Z,98268.50
2023-01-18T11:42:25.921Z,98271.34
2023-01-18T11:45:34.163Z,98271.00
2023-01-18T11:48:43.287Z,98277.53
2023-01-18T11:51:53.073Z,98275.25
2023-01-18T11:54:59.522Z,98272.38
2023-01-18T11:58:02.705Z,98288.06
2023-01-18T12:01:25.769Z,98274.34
2023-01-18T12:04:42.720Z,98285.22
2023-01-18T12:08:01.443Z,98290.75
2023-01-18T12:11:18.675Z,98285.03
2023-01-18T12:14:43.490Z,98257.31
2023-01-18T12:18:12.834Z,98297.56
2023-01-18T12:21:26.641Z,98293.06
2023-01-18T12:24:41.858Z,98302.06
2023-01-18T12:27:52.013Z,98306.16
2023-01-18T12:31:10.043Z,98305.22
2023-01-18T12:34:23.610Z,98306.28
2023-01-18T12:37:38.996Z,98307.56
2023-01-18T12:40:54.677Z,98319.72
2023-01-18T12:44:15.515Z,98316.75
2023-01-18T12:47:39.459Z,98321.84
2023-01-18T12:50:44.500Z,98325.06
2023-01-18T12:53:50.971Z,98322.72
2023-01-18T12:56:57.150Z,98333.75
2023-01-18T13:00:07.017Z,98341.28
2023-01-18T13:03:15.609Z,98333.22
2023-01-18T13:06:21.426Z,98339.44
2023-01-18T13:09:28.519Z,98347.56
2023-01-18T13:12:33.139Z,98343.78
2023-01-18T13:15:44.529Z,98346.03
2023-01-18T13:18:56.503Z,98354.00
2023-01-18T13:22:07.520Z,98357.06
2023-01-18T13:25:39.913Z,98362.56
2023-01-18T13:28:53.795Z,98364.06
2023-01-18T13:31:57.548Z,98368.25
2023-01-18T13:35:18.927Z,98376.38
2023-01-18T13:38:40.978Z,98380.75
2023-01-18T13:42:09.956Z,98387.34
2023-01-18T13:45:18.537Z,98396.53
2023-01-18T13:48:46.372Z,98398.25
2023-01-18T13:51:53.905Z,98410.25
2023-01-18T13:55:25.999Z,98420.25
2023-01-18T13:58:31.101Z,98429.66
2023-01-18T14:01:37.774Z,98429.81
2023-01-18T14:04:40.832Z,98425.56
2023-01-18T14:07:46.991Z,98439.75
2023-01-18T14:10:53.006Z,98445.88
2023-01-18T14:14:05.501Z,98453.63
2023-01-18T14:17:16.490Z,98462.28
2023-01-18T14:20:43.691Z,98472.75
2023-01-18T14:24:22.146Z,98473.53
2023-01-18T14:27:28.512Z,98482.63
2023-01-18T14:30:34.159Z,98475.41
2023-01-18T14:33:41.253Z,98489.88
2023-01-18T14:36:44.146Z,98491.91
2023-01-18T14:39:46.783Z,98497.06
2023-01-18T14:42:53.425Z,98508.28
2023-01-18T14:46:01.049Z,98512.84
2023-01-18T14:49:05.107Z,98517.53
2023-01-18T14:52:08.667Z,98515.81
2023-01-18T14:55:24.739Z,98516.28
2023-01-18T14:58:28.451Z,98535.13
2023-01-18T15:01:33.972Z,98537.34
2023-01-18T15:04:40.158Z,98545.78
2023-01-18T15:07:46.413Z,98546.59
2023-01-18T15:10:49.750Z,98560.69
2023-01-18T15:13:55.985Z,98580.09
2023-01-18T15:17:01.910Z,98587.56
2023-01-18T15:20:09.654Z,98598.88
2023-01-18T15:23:13.672Z,98608.91
2023-01-18T15:26:16.352Z,98614.44
2023-01-18T15:29:20.905Z,98615.44
2023-01-18T15:32:26.033Z,98620.09
2023-01-18T15:35:31.088Z,98628.47
2023-01-18T15:38:34.236Z,98630.69
2023-01-18T15:41:36.968Z,98639.81
2023-01-18T15:44:48.889Z,98640.25
2023-01-18T15:47:54.445Z,98652.00
2023-01-18T15:51:07.396Z,98663.03
2023-01-18T15:54:17.416Z,98664.13
2023-01-18T15:57:21.465Z,98671.69
2023-01-18T16:00:34.504Z,98671.88
2023-01-18T16:03:40.899Z,98685.47
2023-01-18T16:06:45.609Z,98686.50
2023-01-18T16:09:49.214Z,98681.38
2023-01-18T16:12:51.895Z,98691.34
2023-01-18T16:16:18.101Z,98686.31
2023-01-18T16:19:31.776Z,98707.75
2023-01-18T16:22:37.227Z,98688.69
2023-01-18T16:25:40.274Z,98717.78
2023-01-18T16:28:50.562Z,98719.69
2023-01-18T16:31:53.428Z,98726.91
2023-01-18T16:34:57.683Z,98743.09
2023-01-18T16:38:02.448Z,98736.13
2023-01-18T16:41:05.331Z,98738.13
2023-01-18T16:44:08.032Z,98748.94
2023-01-18T16:47:11.470Z,98747.28
2023-01-18T16:50:19.617Z,98758.03
2023-01-18T16:53:30.082Z,98766.22
2023-01-18T16:56:39.893Z,98775.13
2023-01-18T16:59:43.534Z,98770.84
2023-01-18T17:02:48.361Z,98776.38
2023-01-18T17:05:51.451Z,98790.69
2023-01-18T17:08:55.513Z,98797.91
2023-01-18T17:11:58.156Z,98803.38
2023-01-18T17:15:00.915Z,98803.56
2023-01-18T17:18:04.594Z,98811.69
2023-01-18T17:21:11.327Z,98825.25
2023-01-18T17:24:15.577Z,98827.16
2023-01-18T17:27:20.392Z,98836.25
2023-01-18T17:30:23.743Z,98839.09
2023-01-18T17:33:26.898Z,98842.72
2023-01-18T17:36:29.663Z,98849.09
2023-01-18T17:39:43.037Z,98845.88
2023-01-18T17:42:56.320Z,98854.97
2023-01-18T17:46:02.010Z,98862.22
2023-01-18T17:49:05.441Z,98860.72
2023-01-18T17:52:08.677Z,98867.78
2023-01-18T17:55:15.190Z,98876.75
2023-01-18T17:58:17.957Z,98874.19
2023-01-18T18:01:21.305Z,98885.81
2023-01-18T18:04:24.593Z,98889.31
2023-01-18T18:07:31.726Z,98891.28
2023-01-18T18:10:35.753Z,98896.78
2023-01-18T18:13:39.156Z,98901.31
2023-01-18T18:16:43.819Z,98908.56
2023-01-18T18:19:46.659Z,98907.78
2023-01-18T18:22:49.316Z,98910.66
2023-01-18T18:25:53.329Z,98917.84
2023-01-18T18:28:55.980Z,98924.22
2023-01-18T18:31:58.625Z,98934.13
2023-01-18T18:35:03.842Z,98944.78
2023-01-18T18:38:08.075Z,98944.88
2023-01-18T18:41:12.101Z,98952.97
2023-01-18T18:44:14.891Z,98954.88
2023-01-18T18:47:17.705Z,98954.97
2023-01-18T18:50:20.489Z,98959.47
2023-01-18T18:53:29.689Z,98960.44
2023-01-18T18:56:41.554Z,98961.41
2023-01-18T18:59:44.263Z,98962.44
2023-01-18T19:02:47.381Z,98966.00
2023-01-18T19:05:51.761Z,98969.59
2023-01-18T19:08:54.863Z,98985.63
2023-01-18T19:11:58.965Z,98979.47
2023-01-18T19:15:01.614Z,98985.81
2023-01-18T19:18:04.612Z,98990.34
2023-01-18T19:21:07.666Z,99006.31
2023-01-18T19:24:10.805Z,99010.78
2023-01-18T19:27:14.841Z,99017.06
2023-01-18T19:30:20.335Z,99024.13
2023-01-18T19:33:23.254Z,99025.94
2023-01-18T19:36:26.456Z,99026.84
2023-01-18T19:39:29.421Z,99022.44
2023-01-18T19:42:33.840Z,99026.97
2023-01-18T19:45:38.876Z,99034.09
2023-01-18T19:48:41.992Z,99041.25
2023-01-18T19:51:47.471Z,99041.28
2023-01-18T19:54:50.196Z,99041.31
2023-01-18T19:57:57.800Z,99043.19
2023-01-18T20:01:01.188Z,99052.94
2023-01-18T20:04:04.800Z,99052.97
2023-01-18T20:07:11.075Z,99052.97
2023-01-18T20:10:14.002Z,99059.28
2023-01-18T20:13:18.926Z,99067.25
2023-01-18T20:16:22.348Z,99065.59
2023-01-18T20:19:25.361Z,99071.84
2023-01-18T20:22:28.120Z,99074.53
2023-01-18T20:25:31.570Z,99076.34
2023-01-18T20:28:36.568Z,99074.59
2023-01-18T20:31:41.997Z,99080.78
2023-01-18T20:34:46.879Z,99085.25
2023-01-18T20:37:54.453Z,99085.28
2023-01-18T20:40:57.450Z,99086.25
2023-01-18T20:44:02.125Z,99090.69
2023-01-18T20:47:12.537Z,99103.06
2023-01-18T20:50:24.376Z,99104.00
2023-01-18T20:53:27.312Z,99106.66
2023-01-18T20:56:31.999Z,99106.75
2023-01-18T20:59:36.430Z,99104.97
2023-01-18T21:02:39.543Z,99113.84
2023-01-18T21:05:43.524Z,99121.00
2023-01-18T21:08:46.258Z,99128.97
2023-01-18T21:11:49.026Z,99133.41
2023-01-18T21:14:53.194Z,99130.75
2023-01-18T21:18:04.326Z,99138.78
2023-01-18T21:21:09.616Z,99144.97
2023-01-18T21:24:12.392Z,99141.47
2023-01-18T21:27:16.777Z,99147.72
2023-01-18T21:30:21.629Z,99153.94
2023-01-18T21:33:33.745Z,99165.44
2023-01-18T21:36:37.351Z,99160.16
2023-01-18T21:39:40.336Z,99157.53
2023-01-18T21:43:00.841Z,99160.22
2023-01-18T21:46:10.238Z,99166.41
2023-01-18T21:50:04.077Z,99162.94
2023-01-18T21:53:17.167Z,99156.78
2023-01-18T21:56:20.034Z,99159.50
2023-01-18T21:59:22.867Z,99166.59
2023-01-18T22:02:27.398Z,99172.78
2023-01-18T22:05:32.403Z,99185.16
2023-01-18T22:08:38.242Z,99173.69
2023-01-18T22:11:41.331Z,99186.09
2023-01-18T22:14:44.279Z,99192.28
2023-01-18T22:17:54.660Z,99188.75
2023-01-18T22:20:57.497Z,99195.84
2023-01-18T22:24:00.918Z,99200.25
2023-01-18T22:27:04.643Z,99196.72
2023-01-18T22:30:11.156Z,99204.72
2023-01-18T22:33:17.530Z,99213.56
2023-01-18T22:36:20.361Z,99219.75
2023-01-18T22:39:25.562Z,99216.22
2023-01-18T22:42:28.359Z,99218.00
2023-01-18T22:45:31.250Z,99228.59
2023-01-18T22:48:36.966Z,99222.41
2023-01-18T22:51:39.694Z,99235.69
2023-01-18T22:54:42.529Z,99232.19
2023-01-18T22:57:45.292Z,99230.44
2023-01-18T23:01:00.323Z,99223.31
2023-01-18T23:04:07.956Z,99231.25
2023-01-18T23:07:14.178Z,99227.72
2023-01-18T23:10:18.695Z,99228.44
2023-01-18T23:13:21.355Z,99231.03
2023-01-18T23:16:44.595Z,99233.72
2023-01-18T23:19:48.852Z,99227.53
2023-01-18T23:22:51.573Z,99251.09
2023-01-18T23:25:58.170Z,99251.81
2023-01-18T23:29:05.218Z,99252.66
2023-01-18T23:32:11.258Z,99243.81
2023-01-18T23:35:15.277Z,99248.91
2023-01-18T23:38:24.183Z,99264.81
2023-01-18T23:41:46.898Z,99257.59
2023-01-18T23:45:16.034Z,99266.47
2023-01-18T23:48:38.168Z,99271.84
2023-01-18T23:51:59.545Z,99270.88
2023-01-18T23:55:04.539Z,99267.34
2023-01-18T23:58:10.250Z,99273.66
